createdAt,value
2019-03-26T00:02:19.201Z,5.94
2019-03-26T00:04:48.429Z,5.99
2019-03-26T00:07:17.627Z,6.00
2019-03-26T00:09:46.855Z,5.97
2019-03-26T00:12:16.076Z,6.00
2019-03-26T00:14:45.278Z,6.04
2019-03-26T00:17:14.587Z,6.10
2019-03-26T00:19:43.781Z,6.09
2019-03-26T00:22:12.983Z,6.06
2019-03-26T00:24:42.211Z,5.97
2019-03-26T00:27:11.434Z,6.01
2019-03-26T00:29:40.643Z,5.98
2019-03-26T00:32:09.879Z,5.95
2019-03-26T00:34:39.072Z,6.02
2019-03-26T00:37:08.282Z,6.01
2019-03-26T00:39:37.536Z,5.94
2019-03-26T00:42:07.043Z,5.90
2019-03-26T00:44:36.244Z,5.86
2019-03-26T00:47:05.553Z,5.83
2019-03-26T00:49:34.751Z,5.82
2019-03-26T00:52:03.968Z,5.82
2019-03-26T00:54:33.194Z,5.73
2019-03-26T00:57:02.510Z,5.71
2019-03-26T00:59:31.730Z,5.72
2019-03-26T01:02:00.958Z,5.73
2019-03-26T01:04:33.059Z,5.72
2019-03-26T01:07:01.094Z,5.67
2019-03-26T01:09:30.338Z,5.58
2019-03-26T01:11:59.539Z,5.61
2019-03-26T01:14:28.758Z,5.65
2019-03-26T01:16:57.981Z,5.65
2019-03-26T01:19:27.191Z,5.63
2019-03-26T01:21:56.509Z,5.67
2019-03-26T01:24:25.778Z,5.64
2019-03-26T01:26:54.975Z,5.64
2019-03-26T01:29:24.185Z,5.64
2019-03-26T01:31:53.408Z,5.64
2019-03-26T01:34:22.630Z,5.62
2019-03-26T01:36:51.824Z,5.61
2019-03-26T01:39:21.046Z,5.57
2019-03-26T01:41:50.284Z,5.56
2019-03-26T01:44:19.517Z,5.54
2019-03-26T01:46:48.802Z,5.52
2019-03-26T01:49:18.002Z,5.51
2019-03-26T01:51:47.225Z,5.47
2019-03-26T01:54:16.422Z,5.48
2019-03-26T01:56:45.656Z,5.52
2019-03-26T01:59:14.897Z,5.50
2019-03-26T02:01:44.096Z,5.50
2019-03-26T02:04:13.318Z,5.47
2019-03-26T02:06:42.537Z,5.44
2019-03-26T02:09:11.770Z,5.43
2019-03-26T02:11:41.095Z,5.44
2019-03-26T02:14:10.291Z,5.42
2019-03-26T02:16:39.544Z,5.42
2019-03-26T02:19:08.740Z,5.35
2019-03-26T02:21:37.940Z,5.28
2019-03-26T02:24:07.249Z,5.28
2019-03-26T02:26:36.449Z,5.26
2019-03-26T02:29:05.652Z,5.21
2019-03-26T02:31:34.892Z,5.20
2019-03-26T02:34:04.087Z,5.23
2019-03-26T02:36:33.276Z,5.21
2019-03-26T02:39:02.512Z,5.26
2019-03-26T02:41:31.707Z,5.19
2019-03-26T02:44:00.908Z,5.18
2019-03-26T02:46:30.133Z,5.19
2019-03-26T02:48:59.357Z,5.19
2019-03-26T02:51:28.568Z,5.24
2019-03-26T02:53:57.760Z,5.20
2019-03-26T02:56:27.000Z,5.23
2019-03-26T02:58:56.204Z,5.21
2019-03-26T03:01:25.453Z,5.21
2019-03-26T03:03:54.643Z,5.22
2019-03-26T03:06:23.870Z,5.24
2019-03-26T03:08:53.071Z,5.25
2019-03-26T03:11:22.282Z,5.25
2019-03-26T03:13:51.584Z,5.24
2019-03-26T03:16:20.885Z,5.26
2019-03-26T03:18:50.114Z,5.23
2019-03-26T03:21:19.336Z,5.19
2019-03-26T03:23:48.543Z,5.23
2019-03-26T03:26:17.831Z,5.31
2019-03-26T03:28:47.048Z,5.34
2019-03-26T03:31:16.246Z,5.31
2019-03-26T03:33:45.457Z,5.31
2019-03-26T03:36:14.658Z,5.30
2019-03-26T03:38:43.881Z,5.27
2019-03-26T03:41:13.100Z,5.23
2019-03-26T03:43:42.367Z,5.23
2019-03-26T03:46:11.579Z,5.20
2019-03-26T03:48:40.961Z,5.23
2019-03-26T03:51:11.754Z,5.20
2019-03-26T03:53:41.026Z,5.18
2019-03-26T03:56:13.347Z,5.16
2019-03-26T03:58:44.357Z,5.13
2019-03-26T04:01:13.574Z,5.13
2019-03-26T04:03:42.792Z,5.14
2019-03-26T04:06:12.027Z,5.11
2019-03-26T04:08:41.238Z,5.09
2019-03-26T04:11:10.441Z,5.11
2019-03-26T04:13:39.653Z,5.17
2019-03-26T04:16:08.898Z,5.17
2019-03-26T04:18:38.118Z,5.17
2019-03-26T04:21:07.351Z,5.19
2019-03-26T04:23:36.562Z,5.21
2019-03-26T04:26:05.761Z,5.21
2019-03-26T04:28:34.981Z,5.20
2019-03-26T04:31:04.194Z,5.19
2019-03-26T04:33:33.403Z,5.13
2019-03-26T04:36:02.628Z,5.11
2019-03-26T04:38:31.916Z,5.12
2019-03-26T04:41:01.146Z,5.16
2019-03-26T04:43:30.345Z,5.16
2019-03-26T04:45:59.541Z,5.16
2019-03-26T04:48:28.781Z,5.12
2019-03-26T04:50:58.057Z,5.11
2019-03-26T04:53:27.341Z,5.01
2019-03-26T04:55:56.636Z,4.96
2019-03-26T04:58:25.844Z,4.91
2019-03-26T05:00:55.150Z,4.92
2019-03-26T05:03:24.365Z,4.86
2019-03-26T05:05:53.563Z,4.83
2019-03-26T05:08:22.784Z,4.81
2019-03-26T05:10:51.988Z,4.84
2019-03-26T05:13:21.211Z,4.87
2019-03-26T05:15:50.460Z,4.91
2019-03-26T05:18:19.652Z,4.98
2019-03-26T05:20:48.872Z,5.00
2019-03-26T05:23:18.366Z,5.02
2019-03-26T05:25:47.556Z,5.02
2019-03-26T05:28:16.849Z,5.02
2019-03-26T05:30:46.079Z,5.03
2019-03-26T05:33:15.270Z,5.00
2019-03-26T05:35:44.466Z,5.00
2019-03-26T05:38:13.766Z,5.04
2019-03-26T05:40:42.995Z,5.00
2019-03-26T05:43:12.258Z,5.01
2019-03-26T05:45:41.456Z,5.03
2019-03-26T05:48:10.677Z,5.04
2019-03-26T05:50:39.903Z,5.02
2019-03-26T05:53:09.104Z,5.03
2019-03-26T05:55:38.317Z,5.05
2019-03-26T05:58:07.639Z,5.06
2019-03-26T06:00:36.843Z,5.11
2019-03-26T06:03:06.128Z,5.09
2019-03-26T06:05:35.348Z,5.15
2019-03-26T06:08:04.548Z,5.16
2019-03-26T06:10:33.757Z,5.18
2019-03-26T06:13:02.981Z,5.19
2019-03-26T06:15:32.191Z,5.23
2019-03-26T06:18:01.389Z,5.21
2019-03-26T06:20:30.622Z,5.26
2019-03-26T06:22:59.820Z,5.27
2019-03-26T06:25:29.035Z,5.30
2019-03-26T06:27:58.251Z,5.30
2019-03-26T06:30:27.464Z,5.37
2019-03-26T06:32:56.674Z,5.36
2019-03-26T06:35:25.897Z,5.45
2019-03-26T06:37:55.094Z,5.48
2019-03-26T06:40:24.339Z,5.62
2019-03-26T06:42:53.892Z,5.65
2019-03-26T06:45:23.169Z,5.67
2019-03-26T06:47:52.356Z,5.71
2019-03-26T06:50:21.760Z,5.73
2019-03-26T06:52:50.980Z,5.87
2019-03-26T06:55:20.425Z,5.96
2019-03-26T06:57:49.666Z,5.96
2019-03-26T07:00:29.538Z,6.07
2019-03-26T07:03:00.087Z,6.17
2019-03-26T07:05:29.299Z,6.18
2019-03-26T07:07:58.605Z,6.32
2019-03-26T07:10:28.697Z,6.28
2019-03-26T07:12:58.311Z,6.40
2019-03-26T07:15:27.543Z,6.47
2019-03-26T07:17:57.169Z,6.42
2019-03-26T07:20:26.445Z,6.40
2019-03-26T07:22:55.679Z,6.51
2019-03-26T07:25:24.954Z,6.56
2019-03-26T07:27:54.235Z,6.56
2019-03-26T07:30:40.936Z,6.43
2019-03-26T07:33:10.908Z,6.24
2019-03-26T07:35:40.280Z,6.19
2019-03-26T07:38:09.586Z,6.22
2019-03-26T07:40:38.785Z,6.43
2019-03-26T07:43:08.143Z,6.44
2019-03-26T07:45:37.648Z,6.27
2019-03-26T07:48:06.928Z,5.98
2019-03-26T07:50:36.230Z,6.02
2019-03-26T07:53:05.531Z,6.18
2019-03-26T07:55:34.733Z,6.41
2019-03-26T07:58:03.952Z,6.72
2019-03-26T08:00:37.466Z,6.71
2019-03-26T08:03:07.673Z,6.70
2019-03-26T08:05:37.204Z,6.79
2019-03-26T08:08:06.488Z,6.60
2019-03-26T08:10:35.704Z,6.38
2019-03-26T08:13:05.001Z,6.31
2019-03-26T08:15:34.225Z,6.41
2019-03-26T08:18:03.466Z,6.57
2019-03-26T08:20:32.666Z,6.89
2019-03-26T08:23:01.873Z,6.76
2019-03-26T08:25:33.710Z,6.46
2019-03-26T08:28:04.903Z,6.64
2019-03-26T08:30:32.944Z,6.91
2019-03-26T08:33:02.156Z,6.99
2019-03-26T08:35:31.392Z,6.99
2019-03-26T08:38:11.654Z,6.87
2019-03-26T08:40:31.498Z,6.73
2019-03-26T08:43:00.714Z,6.74
2019-03-26T08:45:30.043Z,6.62
2019-03-26T08:47:59.247Z,6.89
2019-03-26T08:50:28.438Z,6.88
2019-03-26T08:52:57.695Z,7.10
2019-03-26T08:55:26.879Z,7.41
2019-03-26T08:57:56.067Z,7.67
2019-03-26T09:00:25.290Z,7.70
2019-03-26T09:02:54.510Z,7.40
2019-03-26T09:05:23.714Z,7.32
2019-03-26T09:07:53.003Z,7.73
2019-03-26T09:10:22.304Z,7.84
2019-03-26T09:12:51.500Z,8.18
2019-03-26T09:15:20.718Z,8.18
2019-03-26T09:17:49.942Z,8.36
2019-03-26T09:20:19.168Z,8.11
2019-03-26T09:22:48.368Z,8.38
2019-03-26T09:25:17.583Z,8.67
2019-03-26T09:27:46.848Z,8.36
2019-03-26T09:30:16.528Z,7.92
2019-03-26T09:32:45.734Z,7.31
2019-03-26T09:35:15.946Z,7.41
2019-03-26T09:37:45.168Z,7.68
2019-03-26T09:40:14.757Z,7.46
2019-03-26T09:42:43.983Z,7.32
2019-03-26T09:45:13.363Z,7.54
2019-03-26T09:47:42.557Z,7.75
2019-03-26T09:50:12.812Z,8.12
2019-03-26T09:52:42.115Z,8.23
2019-03-26T09:55:11.468Z,8.61
2019-03-26T09:57:40.687Z,8.93
2019-03-26T10:00:10.746Z,8.64
2019-03-26T10:02:42.751Z,8.26
2019-03-26T10:05:11.321Z,7.98
2019-03-26T10:07:40.618Z,8.22
2019-03-26T10:10:11.848Z,8.15
2019-03-26T10:12:41.044Z,8.06
2019-03-26T10:15:10.956Z,7.69
2019-03-26T10:17:40.471Z,7.79
2019-03-26T10:20:10.034Z,7.81
2019-03-26T10:22:39.231Z,7.71
2019-03-26T10:25:11.249Z,8.00
2019-03-26T10:27:41.071Z,7.94
2019-03-26T10:30:11.513Z,7.77
2019-03-26T10:32:40.737Z,7.96
2019-03-26T10:35:10.239Z,7.85
2019-03-26T10:37:39.447Z,8.01
2019-03-26T10:40:09.963Z,8.16
2019-03-26T10:42:39.194Z,8.58
2019-03-26T10:45:08.666Z,8.33
2019-03-26T10:47:37.871Z,8.21
2019-03-26T10:50:07.274Z,8.26
2019-03-26T10:52:36.478Z,8.38
2019-03-26T10:55:06.263Z,8.04
2019-03-26T10:57:35.492Z,7.90
2019-03-26T11:00:06.103Z,7.76
2019-03-26T11:02:35.415Z,7.80
2019-03-26T11:05:05.022Z,7.93
2019-03-26T11:07:34.226Z,7.87
2019-03-26T11:10:03.973Z,7.76
2019-03-26T11:12:33.186Z,7.81
2019-03-26T11:15:02.495Z,8.00
2019-03-26T11:17:31.985Z,8.09
2019-03-26T11:20:01.192Z,8.35
2019-03-26T11:22:30.805Z,8.31
2019-03-26T11:25:00.026Z,8.58
2019-03-26T11:27:29.226Z,8.55
2019-03-26T11:29:58.422Z,8.56
2019-03-26T11:32:27.646Z,8.55
2019-03-26T11:34:56.858Z,8.03
2019-03-26T11:37:26.075Z,7.89
2019-03-26T11:39:55.275Z,8.01
2019-03-26T11:42:24.510Z,8.11
2019-03-26T11:44:54.005Z,8.25
2019-03-26T11:47:23.231Z,8.08
2019-03-26T11:49:52.458Z,7.95
2019-03-26T11:52:21.656Z,7.80
2019-03-26T11:54:50.846Z,7.59
2019-03-26T11:57:20.084Z,7.67
2019-03-26T11:59:49.578Z,7.75
2019-03-26T12:02:18.992Z,7.72
2019-03-26T12:04:48.180Z,7.79
2019-03-26T12:07:17.409Z,7.87
2019-03-26T12:09:47.035Z,8.00
2019-03-26T12:12:16.300Z,7.98
2019-03-26T12:14:45.478Z,7.94
2019-03-26T12:17:15.147Z,7.70
2019-03-26T12:19:44.473Z,7.62
2019-03-26T12:22:13.699Z,7.54
2019-03-26T12:24:42.903Z,7.58
2019-03-26T12:27:12.169Z,7.72
2019-03-26T12:29:41.327Z,7.67
2019-03-26T12:32:10.535Z,7.59
2019-03-26T12:34:39.742Z,7.51
2019-03-26T12:37:09.031Z,7.44
2019-03-26T12:39:38.237Z,7.35
2019-03-26T12:42:07.464Z,7.31
2019-03-26T12:44:36.663Z,7.29
2019-03-26T12:47:05.862Z,7.35
2019-03-26T12:49:35.090Z,7.30
2019-03-26T12:52:04.359Z,7.35
2019-03-26T12:54:33.554Z,7.37
2019-03-26T12:57:02.768Z,7.35
2019-03-26T12:59:31.989Z,7.40
2019-03-26T13:02:01.212Z,7.46
2019-03-26T13:04:30.404Z,7.49
2019-03-26T13:06:59.624Z,7.41
2019-03-26T13:09:28.832Z,7.46
2019-03-26T13:11:58.057Z,7.46
2019-03-26T13:14:27.256Z,7.49
2019-03-26T13:16:56.453Z,7.43
2019-03-26T13:19:25.755Z,7.34
2019-03-26T13:21:54.959Z,7.12
2019-03-26T13:24:24.159Z,7.04
2019-03-26T13:26:53.388Z,6.86
2019-03-26T13:29:23.189Z,6.83
2019-03-26T13:31:52.388Z,6.86
2019-03-26T13:34:21.603Z,6.96
2019-03-26T13:36:50.816Z,6.96
2019-03-26T13:39:20.098Z,6.96
2019-03-26T13:41:49.321Z,7.02
2019-03-26T13:44:18.791Z,6.94
2019-03-26T13:46:48.021Z,6.97
2019-03-26T13:49:17.231Z,6.95
2019-03-26T13:51:46.743Z,6.98
2019-03-26T13:54:15.936Z,6.94
2019-03-26T13:56:45.133Z,6.94
2019-03-26T13:59:14.357Z,6.90
2019-03-26T14:01:43.577Z,6.92
2019-03-26T14:04:12.783Z,6.97
2019-03-26T14:06:42.022Z,7.02
2019-03-26T14:09:11.295Z,7.07
2019-03-26T14:11:40.493Z,7.03
2019-03-26T14:14:09.719Z,7.00
2019-03-26T14:16:38.922Z,7.00
2019-03-26T14:19:08.247Z,7.03
2019-03-26T14:21:37.473Z,7.01
2019-03-26T14:24:06.701Z,7.00
2019-03-26T14:26:35.897Z,7.03
2019-03-26T14:29:05.200Z,7.03
2019-03-26T14:31:34.429Z,7.04
2019-03-26T14:34:03.710Z,7.08
2019-03-26T14:36:32.988Z,7.12
2019-03-26T14:39:04.468Z,7.26
2019-03-26T14:41:33.686Z,7.26
2019-03-26T14:44:02.947Z,7.32
2019-03-26T14:46:32.187Z,7.40
2019-03-26T14:49:01.681Z,7.29
2019-03-26T14:51:30.876Z,7.33
2019-03-26T14:54:00.097Z,7.45
2019-03-26T14:56:29.326Z,7.52
2019-03-26T14:58:58.765Z,7.52
2019-03-26T15:01:27.975Z,7.57
2019-03-26T15:03:57.519Z,7.67
2019-03-26T15:07:24.478Z,7.64
2019-03-26T15:09:53.656Z,7.63
2019-03-26T15:12:22.884Z,7.65
2019-03-26T15:14:52.088Z,7.68
2019-03-26T15:17:21.283Z,7.71
2019-03-26T15:19:50.497Z,7.64
2019-03-26T15:22:19.714Z,7.53
2019-03-26T15:24:49.246Z,7.55
2019-03-26T15:27:18.517Z,7.51
2019-03-26T15:29:47.661Z,7.45
2019-03-26T15:32:16.905Z,7.53
2019-03-26T15:34:46.108Z,7.47
2019-03-26T15:37:15.323Z,7.41
2019-03-26T15:39:44.511Z,7.45
2019-03-26T15:42:13.727Z,7.60
2019-03-26T15:44:42.933Z,7.59
2019-03-26T15:47:12.163Z,7.60
2019-03-26T15:49:41.375Z,7.58
2019-03-26T15:52:10.567Z,7.54
2019-03-26T15:54:40.664Z,7.48
2019-03-26T15:57:09.858Z,7.54
2019-03-26T15:59:39.062Z,7.52
2019-03-26T16:02:08.370Z,7.57
2019-03-26T16:04:37.571Z,7.59
2019-03-26T16:07:06.812Z,7.56
2019-03-26T16:09:36.067Z,7.48
2019-03-26T16:12:05.354Z,7.48
2019-03-26T16:14:36.956Z,7.40
2019-03-26T16:17:06.188Z,7.36
2019-03-26T16:19:36.685Z,7.37
2019-03-26T16:22:05.981Z,7.38
2019-03-26T16:24:35.211Z,7.34
2019-03-26T16:27:04.500Z,7.31
2019-03-26T16:29:34.038Z,7.29
2019-03-26T16:32:03.273Z,7.20
2019-03-26T16:34:33.443Z,7.17
2019-03-26T16:37:02.977Z,7.16
2019-03-26T16:39:32.903Z,7.21
2019-03-26T16:42:02.189Z,7.24
2019-03-26T16:44:33.045Z,7.29
2019-03-26T16:47:03.609Z,7.29
2019-03-26T16:49:33.166Z,7.24
2019-03-26T16:52:07.290Z,7.24
2019-03-26T16:54:36.599Z,7.21
2019-03-26T16:57:16.477Z,7.17
2019-03-26T16:59:45.732Z,7.20
2019-03-26T17:02:14.925Z,7.17
2019-03-26T17:04:46.716Z,7.15
2019-03-26T17:07:15.139Z,7.14
2019-03-26T17:09:44.439Z,7.17
2019-03-26T17:12:13.947Z,7.17
2019-03-26T17:14:46.164Z,7.19
2019-03-26T17:17:16.047Z,7.17
2019-03-26T17:19:46.269Z,7.17
2019-03-26T17:22:15.459Z,7.16
2019-03-26T17:24:44.782Z,7.16
2019-03-26T17:27:13.985Z,7.14
2019-03-26T17:29:43.482Z,7.14
2019-03-26T17:32:12.793Z,7.14
2019-03-26T17:34:42.001Z,7.17
2019-03-26T17:37:11.507Z,7.12
2019-03-26T17:39:40.737Z,7.08
2019-03-26T17:42:17.230Z,7.02
2019-03-26T17:44:43.711Z,6.95
2019-03-26T17:47:12.961Z,6.95
2019-03-26T17:49:42.171Z,6.90
2019-03-26T17:52:11.723Z,6.87
2019-03-26T17:54:41.272Z,6.84
2019-03-26T17:57:12.644Z,6.85
2019-03-26T17:59:41.902Z,6.84
2019-03-26T18:02:11.146Z,6.80
2019-03-26T18:04:41.120Z,6.82
2019-03-26T18:07:10.948Z,6.80
2019-03-26T18:09:40.262Z,6.81
2019-03-26T18:12:09.498Z,6.81
2019-03-26T18:14:38.749Z,6.77
2019-03-26T18:17:08.327Z,6.75
2019-03-26T18:19:37.523Z,6.77
2019-03-26T18:22:06.816Z,6.74
2019-03-26T18:24:36.700Z,6.76
2019-03-26T18:27:05.934Z,6.75
2019-03-26T18:29:35.148Z,6.76
2019-03-26T18:32:04.353Z,6.77
2019-03-26T18:34:33.971Z,6.76
2019-03-26T18:37:03.491Z,6.75
2019-03-26T18:39:32.699Z,6.71
2019-03-26T18:42:02.285Z,6.76
2019-03-26T18:44:31.500Z,6.78
2019-03-26T18:47:01.044Z,6.81
2019-03-26T18:49:30.669Z,6.78
2019-03-26T18:51:59.920Z,6.77
2019-03-26T18:54:29.136Z,6.82
2019-03-26T18:56:59.036Z,6.85
2019-03-26T18:59:28.548Z,6.83
2019-03-26T19:01:57.772Z,6.84
2019-03-26T19:04:28.042Z,6.84
2019-03-26T19:06:57.281Z,6.86
2019-03-26T19:09:26.553Z,6.92
2019-03-26T19:11:57.370Z,6.88
2019-03-26T19:14:26.866Z,6.91
2019-03-26T19:16:56.107Z,6.90
2019-03-26T19:19:25.319Z,6.94
2019-03-26T19:21:54.563Z,6.94
2019-03-26T19:24:23.796Z,6.95
2019-03-26T19:26:53.014Z,6.96
2019-03-26T19:29:22.848Z,6.92
2019-03-26T19:31:52.070Z,6.93
2019-03-26T19:34:21.308Z,6.88
2019-03-26T19:36:51.073Z,6.86
2019-03-26T19:39:21.016Z,6.80
2019-03-26T19:41:50.227Z,6.85
2019-03-26T19:44:19.469Z,6.85
2019-03-26T19:46:50.637Z,6.80
2019-03-26T19:49:20.227Z,6.78
2019-03-26T19:51:50.846Z,6.77
2019-03-26T19:54:24.312Z,6.73
2019-03-26T19:56:58.829Z,6.76
2019-03-26T19:59:29.553Z,6.76
2019-03-26T20:01:59.947Z,6.72
2019-03-26T20:04:31.877Z,6.67
2019-03-26T20:07:01.580Z,6.65
2019-03-26T20:09:34.572Z,6.65
2019-03-26T20:12:04.660Z,6.67
2019-03-26T20:14:34.798Z,6.68
2019-03-26T20:17:04.182Z,6.67
2019-03-26T20:19:34.135Z,6.66
2019-03-26T20:22:03.374Z,6.71
2019-03-26T20:24:34.893Z,6.72
2019-03-26T20:27:14.221Z,6.68
2019-03-26T20:29:44.937Z,6.64
2019-03-26T20:32:16.647Z,6.56
2019-03-26T20:34:46.368Z,6.58
2019-03-26T20:37:16.004Z,6.58
2019-03-26T20:39:47.634Z,6.59
2019-03-26T20:42:18.748Z,6.59
2019-03-26T20:44:48.343Z,6.58
2019-03-26T20:47:17.846Z,6.60
2019-03-26T20:49:47.941Z,6.61
2019-03-26T20:52:18.941Z,6.65
2019-03-26T20:54:48.824Z,6.61
2019-03-26T20:57:21.342Z,6.59
2019-03-26T20:59:52.302Z,6.57
2019-03-26T21:02:22.792Z,6.55
2019-03-26T21:04:52.688Z,6.58
2019-03-26T21:07:22.602Z,6.58
2019-03-26T21:09:52.166Z,6.59
2019-03-26T21:12:21.484Z,6.59
2019-03-26T21:14:52.282Z,6.58
2019-03-26T21:17:21.807Z,6.58
2019-03-26T21:19:51.583Z,6.64
2019-03-26T21:22:20.819Z,6.58
2019-03-26T21:24:51.604Z,6.58
2019-03-26T21:27:22.500Z,6.62
2019-03-26T21:29:52.531Z,6.55
2019-03-26T21:32:22.135Z,6.53
2019-03-26T21:34:51.413Z,6.48
2019-03-26T21:37:20.663Z,6.44
2019-03-26T21:39:49.871Z,6.41
2019-03-26T21:42:19.358Z,6.38
2019-03-26T21:44:48.871Z,6.35
2019-03-26T21:47:18.696Z,6.26
2019-03-26T21:49:48.628Z,6.25
2019-03-26T21:52:18.732Z,6.26
2019-03-26T21:54:48.179Z,6.22
2019-03-26T21:57:17.396Z,6.16
2019-03-26T21:59:46.943Z,6.16
2019-03-26T22:02:18.872Z,6.11
2019-03-26T22:04:48.959Z,6.10
2019-03-26T22:07:18.507Z,6.05
2019-03-26T22:09:47.745Z,6.08
2019-03-26T22:12:17.342Z,6.00
2019-03-26T22:14:47.257Z,6.00
2019-03-26T22:17:16.925Z,5.94
2019-03-26T22:19:46.123Z,5.89
2019-03-26T22:22:16.676Z,5.82
2019-03-26T22:24:49.288Z,5.80
2019-03-26T22:27:18.492Z,5.79
2019-03-26T22:29:48.836Z,5.74
2019-03-26T22:32:19.444Z,5.67
2019-03-26T22:34:49.467Z,5.74
2019-03-26T22:37:18.679Z,5.73
2019-03-26T22:39:48.363Z,5.77
2019-03-26T22:42:17.597Z,5.81
2019-03-26T22:44:46.815Z,5.80
2019-03-26T22:47:16.042Z,5.83
2019-03-26T22:49:45.245Z,5.88
2019-03-26T22:52:15.014Z,5.84
2019-03-26T22:54:44.237Z,5.87
2019-03-26T22:57:13.472Z,5.89
2019-03-26T22:59:42.674Z,5.89
2019-03-26T23:02:11.959Z,5.87
2019-03-26T23:04:41.177Z,5.80
2019-03-26T23:07:10.438Z,5.78
2019-03-26T23:09:39.659Z,5.82
2019-03-26T23:12:08.904Z,5.79
2019-03-26T23:14:45.164Z,5.81
2019-03-26T23:17:09.421Z,5.84
2019-03-26T23:19:39.725Z,5.80
2019-03-26T23:22:09.202Z,5.75
2019-03-26T23:24:38.686Z,5.72
2019-03-26T23:27:10.226Z,5.71
2019-03-26T23:29:41.252Z,5.73
2019-03-26T23:32:10.999Z,5.72
2019-03-26T23:34:41.180Z,5.72
2019-03-26T23:37:11.201Z,5.69
2019-03-26T23:39:40.935Z,5.72
2019-03-26T23:42:10.885Z,5.77
2019-03-26T23:44:40.920Z,5.79
2019-03-26T23:47:10.197Z,5.78
2019-03-26T23:49:40.028Z,5.83
2019-03-26T23:52:09.498Z,5.83
2019-03-26T23:54:38.736Z,5.80
2019-03-26T23:57:08.357Z,5.87
2019-03-26T23:59:37.568Z,5.91
